Time;durP1;ratioP1;P1;durP2;ratioP2;P2;SDS_P1;SDS_P2;PMS_P1;PMS_P2;Temp;Humidity;BMP_temperature;BMP_pressure;BME280_temperature;BME280_humidity;BME280_pressure;Samples;Min_cycle;Max_cycle;Signal;HPM_P1;HPM_P2
2023/03/07 00:01:34;;;;;;;15.13;11.88;;;;;;;;;;5021074;28;20062;-91
2023/03/07 00:04:01;;;;;;;17.15;12.40;;;;;;;;;;5023603;28;20049;-90
2023/03/07 00:06:32;;;;;;;14.82;11.73;;;;;;;;;;5017104;28;20045;-90
2023/03/07 00:09:01;;;;;;;17.85;11.85;;;;;;;;;;5035449;22;20053;-84
2023/03/07 00:11:28;;;;;;;16.75;12.32;;;;;;;;;;5028120;28;20052;-84
2023/03/07 00:13:56;;;;;;;17.55;12.85;;;;;;;;;;5029815;28;20882;-84
2023/03/07 00:16:26;;;;;;;16.63;12.40;;;;;;;;;;5004653;28;20049;-84
2023/03/07 00:18:54;;;;;;;16.73;10.80;;;;;;;;;;5012094;28;20416;-84
2023/03/07 00:21:22;;;;;;;14.40;10.98;;;;;;;;;;4972807;28;20073;-84
2023/03/07 00:23:52;;;;;;;16.30;11.20;;;;;;;;;;4990708;28;20389;-84
2023/03/07 00:26:22;;;;;;;14.48;10.52;;;;;;;;;;5022081;28;20042;-84
2023/03/07 00:28:51;;;;;;;13.10;10.35;;;;;;;;;;4971737;28;20057;-84
2023/03/07 00:31:19;;;;;;;17.88;11.60;;;;;;;;;;4979035;28;20049;-84
2023/03/07 00:33:47;;;;;;;18.73;12.25;;;;;;;;;;4989379;28;20046;-84
2023/03/07 00:36:15;;;;;;;17.05;11.13;;;;;;;;;;4981157;28;20046;-84
2023/03/07 00:38:45;;;;;;;17.73;12.05;;;;;;;;;;4974266;28;20061;-84
2023/03/07 00:41:15;;;;;;;15.77;11.20;;;;;;;;;;5007381;28;20045;-84
2023/03/07 00:43:45;;;;;;;20.63;11.45;;;;;;;;;;4974377;28;20046;-85
2023/03/07 00:46:13;;;;;;;17.95;11.32;;;;;;;;;;4971126;28;20046;-84
2023/03/07 00:48:40;;;;;;;16.38;11.18;;;;;;;;;;4987784;28;20054;-84
2023/03/07 00:51:10;;;;;;;12.75;10.50;;;;;;;;;;4990246;28;20046;-85
2023/03/07 00:53:40;;;;;;;17.98;12.13;;;;;;;;;;4988718;28;20492;-85
2023/03/07 00:56:14;;;;;;;15.75;11.77;;;;;;;;;;4968327;28;20505;-85
2023/03/07 00:58:44;;;;;;;18.38;11.63;;;;;;;;;;4990414;28;20053;-85
2023/03/07 01:01:13;;;;;;;14.23;10.25;;;;;;;;;;4975895;28;20049;-85
2023/03/07 01:03:43;;;;;;;15.43;10.13;;;;;;;;;;4975346;28;20042;-84
2023/03/07 01:06:14;;;;;;;16.80;12.68;;;;;;;;;;4990958;28;20058;-85
2023/03/07 01:08:41;;;;;;;17.60;11.57;;;;;;;;;;4973152;28;20057;-85
2023/03/07 01:11:16;;;;;;;;;;;;;;;;;;4974704;28;20056;-84
2023/03/07 01:13:45;;;;;;;20.85;14.77;;;;;;;;;;4973103;28;19921;-85
2023/03/07 01:16:17;;;;;;;17.45;11.52;;;;;;;;;;4990941;28;20080;-85
2023/03/07 01:18:47;;;;;;;18.75;11.73;;;;;;;;;;4988088;28;20042;-85
2023/03/07 01:21:16;;;;;;;19.45;12.90;;;;;;;;;;4993658;28;20502;-85
2023/03/07 01:23:44;;;;;;;18.95;14.52;;;;;;;;;;4995406;28;20522;-85
2023/03/07 01:26:14;;;;;;;24.85;11.63;;;;;;;;;;5013053;28;20064;-85
2023/03/07 01:28:43;;;;;;;18.30;12.02;;;;;;;;;;4978187;28;20503;-85
2023/03/07 01:31:11;;;;;;;27.10;15.38;;;;;;;;;;4999135;28;20052;-84
2023/03/07 01:33:40;;;;;;;19.30;13.00;;;;;;;;;;5000815;28;20045;-85
2023/03/07 01:36:16;;;;;;;19.45;13.98;;;;;;;;;;4995148;28;20038;-84
2023/03/07 01:38:43;;;;;;;24.83;15.73;;;;;;;;;;4994408;28;20511;-85
2023/03/07 01:41:11;;;;;;;19.05;13.15;;;;;;;;;;4990754;28;20042;-84
2023/03/07 01:43:39;;;;;;;20.17;13.82;;;;;;;;;;4989755;28;20072;-85
2023/03/07 01:46:33;;;;;;;21.58;14.43;;;;;;;;;;4981549;28;20049;-84
2023/03/07 01:49:08;;;;;;;16.95;12.25;;;;;;;;;;4977626;28;20057;-85
2023/03/07 01:51:38;;;;;;;24.77;14.25;;;;;;;;;;4994146;28;20057;-85
2023/03/07 01:54:06;;;;;;;18.17;13.15;;;;;;;;;;4976849;28;20050;-84
2023/03/07 01:56:34;;;;;;;17.50;13.30;;;;;;;;;;4971351;28;20050;-85
2023/03/07 01:59:02;;;;;;;22.58;14.68;;;;;;;;;;4992506;28;20046;-84
2023/03/07 02:01:33;;;;;;;21.08;14.25;;;;;;;;;;5011209;28;20040;-85
2023/03/07 02:04:03;;;;;;;18.23;14.23;;;;;;;;;;5002675;28;20034;-85
2023/03/07 02:06:33;;;;;;;19.95;13.45;;;;;;;;;;5001959;28;20046;-85
2023/03/07 02:09:02;;;;;;;17.02;12.63;;;;;;;;;;5022475;28;20050;-85
2023/03/07 02:11:31;;;;;;;20.05;14.60;;;;;;;;;;5000999;28;20049;-85
2023/03/07 02:13:58;;;;;;;18.45;12.80;;;;;;;;;;4979474;28;20061;-85
2023/03/07 02:16:26;;;;;;;17.40;12.30;;;;;;;;;;4997831;28;20046;-85
2023/03/07 02:18:57;;;;;;;18.15;13.05;;;;;;;;;;4995180;28;20046;-85
2023/03/07 02:21:34;;;;;;;19.35;14.43;;;;;;;;;;4992487;28;20396;-85
2023/03/07 02:24:09;;;;;;;16.45;13.65;;;;;;;;;;4991349;28;20049;-85
2023/03/07 02:26:40;;;;;;;;;;;;;;;;;;5015320;28;20061;-85
2023/03/07 02:29:11;;;;;;;21.80;14.45;;;;;;;;;;5013832;28;19937;-85
2023/03/07 02:31:41;;;;;;;21.23;14.30;;;;;;;;;;4994270;28;20050;-85
2023/03/07 02:34:21;;;;;;;17.55;11.85;;;;;;;;;;4993549;28;20048;-85
2023/03/07 02:36:54;;;;;;;17.23;12.48;;;;;;;;;;4985092;28;20530;-84
2023/03/07 02:39:23;;;;;;;18.52;14.30;;;;;;;;;;5013233;28;20049;-84
2023/03/07 02:41:55;;;;;;;22.77;14.80;;;;;;;;;;4973041;28;20072;-85
2023/03/07 02:44:37;;;;;;;22.35;15.38;;;;;;;;;;5013445;28;20053;-84
2023/03/07 02:47:07;;;;;;;22.27;12.50;;;;;;;;;;4999869;28;20061;-84
2023/03/07 02:49:35;;;;;;;20.98;12.45;;;;;;;;;;5013787;28;20038;-84
2023/03/07 02:52:02;;;;;;;17.30;13.48;;;;;;;;;;4977424;28;20415;-84
2023/03/07 02:54:31;;;;;;;21.15;14.30;;;;;;;;;;4996106;28;20061;-85
2023/03/07 02:57:00;;;;;;;18.45;14.13;;;;;;;;;;4992788;28;20060;-85
2023/03/07 02:59:28;;;;;;;18.95;14.88;;;;;;;;;;5014826;28;20046;-84
2023/03/07 03:02:00;;;;;;;20.83;13.60;;;;;;;;;;4975578;28;20046;-85
2023/03/07 03:04:30;;;;;;;20.77;12.98;;;;;;;;;;4972988;28;20069;-85
2023/03/07 03:07:00;;;;;;;16.08;12.93;;;;;;;;;;4978427;28;20531;-85
2023/03/07 03:09:27;;;;;;;15.75;12.35;;;;;;;;;;4975732;28;20052;-85
2023/03/07 03:11:55;;;;;;;18.58;12.48;;;;;;;;;;4975880;28;20057;-84
2023/03/07 03:14:26;;;;;;;21.15;13.57;;;;;;;;;;4991112;28;20050;-84
2023/03/07 03:16:56;;;;;;;21.50;14.68;;;;;;;;;;5004990;28;20048;-85
2023/03/07 03:19:23;;;;;;;21.13;16.15;;;;;;;;;;4990494;28;20057;-84
2023/03/07 03:21:52;;;;;;;21.90;13.82;;;;;;;;;;4977617;28;20059;-84
2023/03/07 03:24:23;;;;;;;17.65;14.90;;;;;;;;;;4991725;28;20049;-84
2023/03/07 03:26:50;;;;;;;19.38;14.30;;;;;;;;;;4967842;28;20058;-84
2023/03/07 03:29:21;;;;;;;19.25;13.57;;;;;;;;;;4988897;28;20053;-84
2023/03/07 03:31:52;;;;;;;25.10;15.43;;;;;;;;;;5010361;28;20058;-84
2023/03/07 03:34:22;;;;;;;16.60;11.82;;;;;;;;;;5004557;28;20053;-85
2023/03/07 03:36:52;;;;;;;17.00;12.68;;;;;;;;;;4996056;28;20637;-84
2023/03/07 03:39:20;;;;;;;18.20;13.30;;;;;;;;;;4973520;28;20538;-84
2023/03/07 03:41:52;;;;;;;20.85;13.15;;;;;;;;;;4993121;28;20049;-84
2023/03/07 03:44:22;;;;;;;19.10;15.07;;;;;;;;;;4975706;28;20065;-84
2023/03/07 03:46:54;;;;;;;19.77;14.57;;;;;;;;;;4970654;28;20182;-84
2023/03/07 03:49:23;;;;;;;18.35;12.98;;;;;;;;;;4976540;28;20499;-84
2023/03/07 03:51:52;;;;;;;22.00;15.65;;;;;;;;;;4992760;28;20061;-85
2023/03/07 03:54:19;;;;;;;18.33;13.63;;;;;;;;;;5005046;28;20042;-84
2023/03/07 03:56:47;;;;;;;23.20;14.93;;;;;;;;;;5016313;28;20384;-84
2023/03/07 03:59:14;;;;;;;18.70;13.00;;;;;;;;;;4989020;28;20431;-84
2023/03/07 04:01:41;;;;;;;21.90;13.02;;;;;;;;;;4974741;28;20054;-85
2023/03/07 04:04:11;;;;;;;19.13;11.68;;;;;;;;;;4988046;28;20420;-84
2023/03/07 04:06:42;;;;;;;22.60;13.43;;;;;;;;;;4992301;28;20046;-84
2023/03/07 04:09:12;;;;;;;24.88;16.05;;;;;;;;;;4990382;28;20037;-84
2023/03/07 04:11:42;;;;;;;24.90;14.15;;;;;;;;;;4975950;28;20053;-84
2023/03/07 04:14:12;;;;;;;21.02;13.00;;;;;;;;;;4995212;28;20033;-84
2023/03/07 04:16:39;;;;;;;23.75;14.00;;;;;;;;;;4993633;28;20419;-84
2023/03/07 04:19:08;;;;;;;17.52;12.05;;;;;;;;;;4990334;28;20499;-85
2023/03/07 04:21:42;;;;;;;15.93;13.63;;;;;;;;;;4986816;28;20058;-84
2023/03/07 04:24:09;;;;;;;21.90;13.48;;;;;;;;;;4975466;28;20042;-84
2023/03/07 04:26:37;;;;;;;20.52;12.82;;;;;;;;;;4989107;28;20054;-84
2023/03/07 04:29:04;;;;;;;17.15;11.80;;;;;;;;;;5009165;28;20053;-85
2023/03/07 04:31:36;;;;;;;16.92;11.82;;;;;;;;;;4989722;28;20058;-84
2023/03/07 04:34:05;;;;;;;19.58;11.88;;;;;;;;;;4963512;28;20054;-85
2023/03/07 04:36:32;;;;;;;18.08;13.68;;;;;;;;;;4964607;28;20045;-84
2023/03/07 04:39:01;;;;;;;18.30;12.93;;;;;;;;;;4996802;28;20046;-84
2023/03/07 04:41:29;;;;;;;18.73;13.02;;;;;;;;;;4973944;28;20062;-84
2023/03/07 04:44:25;;;;;;;17.98;12.82;;;;;;;;;;4998651;28;20058;-84
2023/03/07 04:46:55;;;;;;;15.82;11.50;;;;;;;;;;5008513;28;20061;-84
2023/03/07 04:49:22;;;;;;;17.25;13.48;;;;;;;;;;4988052;28;20046;-84
2023/03/07 04:51:52;;;;;;;17.85;12.20;;;;;;;;;;5011165;28;20081;-84
2023/03/07 04:54:24;;;;;;;17.92;11.77;;;;;;;;;;5009609;28;20045;-84
2023/03/07 04:56:52;;;;;;;21.55;13.82;;;;;;;;;;4992241;28;20053;-84
2023/03/07 04:59:19;;;;;;;16.30;11.07;;;;;;;;;;4992118;28;20049;-84
2023/03/07 05:01:52;;;;;;;14.45;12.02;;;;;;;;;;4993589;28;20057;-84
2023/03/07 05:04:19;;;;;;;15.35;12.75;;;;;;;;;;4985093;28;20041;-83
2023/03/07 05:06:47;;;;;;;17.33;11.45;;;;;;;;;;5010122;28;20507;-84
2023/03/07 05:09:41;;;;;;;16.15;12.02;;;;;;;;;;5011657;28;20046;-84
2023/03/07 05:12:08;;;;;;;17.60;11.88;;;;;;;;;;4979334;28;20061;-84
2023/03/07 05:14:36;;;;;;;18.38;12.48;;;;;;;;;;4990715;28;20522;-84
2023/03/07 05:17:06;;;;;;;17.13;11.05;;;;;;;;;;4978767;28;20053;-81
2023/03/07 05:19:33;;;;;;;17.00;12.00;;;;;;;;;;4992065;28;20045;-83
2023/03/07 05:22:06;;;;;;;19.30;11.57;;;;;;;;;;4995351;28;20041;-83
2023/03/07 05:24:34;;;;;;;14.57;10.65;;;;;;;;;;4999594;28;20050;-84
2023/03/07 05:27:03;;;;;;;15.82;11.07;;;;;;;;;;4995903;28;20526;-83
2023/03/07 05:29:30;;;;;;;12.95;10.48;;;;;;;;;;4991212;28;20116;-84
2023/03/07 05:31:57;;;;;;;16.92;11.65;;;;;;;;;;5017485;28;20053;-84
2023/03/07 05:34:25;;;;;;;15.55;10.85;;;;;;;;;;4994513;28;20054;-84
2023/03/07 05:36:53;;;;;;;15.77;11.77;;;;;;;;;;5011295;28;20050;-84
2023/03/07 05:39:20;;;;;;;16.75;12.18;;;;;;;;;;4994771;28;20046;-83
2023/03/07 05:41:47;;;;;;;14.38;11.35;;;;;;;;;;4989907;28;20058;-83
2023/03/07 05:44:17;;;;;;;14.45;10.80;;;;;;;;;;4965052;28;20061;-83
2023/03/07 05:46:44;;;;;;;15.57;11.00;;;;;;;;;;4980422;28;20053;-83
2023/03/07 05:49:17;;;;;;;16.58;12.07;;;;;;;;;;4996034;28;20104;-83
2023/03/07 05:51:44;;;;;;;15.75;10.73;;;;;;;;;;4994521;28;20282;-84
2023/03/07 05:54:11;;;;;;;18.88;12.85;;;;;;;;;;4964000;28;20049;-84
2023/03/07 05:56:39;;;;;;;15.77;10.45;;;;;;;;;;4978582;28;20333;-84
2023/03/07 05:59:11;;;;;;;14.02;8.93;;;;;;;;;;4998056;28;20057;-84
2023/03/07 06:01:40;;;;;;;16.20;13.07;;;;;;;;;;4978047;28;20069;-84
2023/03/07 06:04:10;;;;;;;14.15;10.63;;;;;;;;;;4982501;28;20039;-84
2023/03/07 06:06:37;;;;;;;15.57;10.48;;;;;;;;;;4979843;28;20449;-83
2023/03/07 06:09:05;;;;;;;15.73;11.55;;;;;;;;;;5003270;23;20049;-90
2023/03/07 06:11:32;;;;;;;11.43;10.23;;;;;;;;;;5015440;28;20056;-90
2023/03/07 06:14:00;;;;;;;16.67;10.63;;;;;;;;;;5033646;28;20056;-90
2023/03/07 06:16:29;;;;;;;13.95;9.35;;;;;;;;;;5001782;28;20060;-90
2023/03/07 06:18:58;;;;;;;19.92;10.32;;;;;;;;;;5004611;28;20057;-90
2023/03/07 06:21:26;;;;;;;13.57;9.05;;;;;;;;;;5001568;28;20135;-90
2023/03/07 06:23:58;;;;;;;17.63;10.02;;;;;;;;;;4997980;28;20465;-90
2023/03/07 06:26:25;;;;;;;17.15;10.45;;;;;;;;;;4999241;28;20065;-90
2023/03/07 06:28:57;;;;;;;16.27;11.35;;;;;;;;;;5015444;28;20507;-90
2023/03/07 06:31:27;;;;;;;17.63;10.35;;;;;;;;;;5012497;28;20058;-90
2023/03/07 06:33:55;;;;;;;16.92;10.32;;;;;;;;;;4997857;28;20052;-90
2023/03/07 06:36:27;;;;;;;16.88;10.73;;;;;;;;;;5015304;28;20045;-90
2023/03/07 06:39:01;;;;;;;12.52;10.18;;;;;;;;;;5001372;28;20049;-90
2023/03/07 06:41:31;;;;;;;13.10;8.98;;;;;;;;;;5014188;28;20054;-90
2023/03/07 06:44:00;;;;;;;13.80;11.00;;;;;;;;;;4997549;28;20404;-90
2023/03/07 12:12:33;;;;;;;10.70;6.95;;;;;;;;;;5025185;28;20041;-83
2023/03/07 12:15:16;;;;;;;9.32;5.70;;;;;;;;;;5026909;28;20418;-84
2023/03/07 12:34:59;;;;;;;8.10;6.00;;;;;;;;;;5134862;23;20045;-88
2023/03/07 12:37:31;;;;;;;7.63;5.13;;;;;;;;;;5026769;28;20507;-87
2023/03/07 12:40:01;;;;;;;6.40;5.00;;;;;;;;;;5010203;28;20510;-88
2023/03/07 12:42:32;;;;;;;6.63;5.38;;;;;;;;;;5028290;28;20046;-87
2023/03/07 12:45:10;;;;;;;7.25;5.10;;;;;;;;;;5009951;28;20041;-86
2023/03/07 12:47:50;;;;;;;8.57;5.88;;;;;;;;;;5029840;28;20049;-88
2023/03/07 12:50:21;;;;;;;8.90;6.07;;;;;;;;;;5034682;28;20053;-86
2023/03/07 12:52:51;;;;;;;9.32;7.05;;;;;;;;;;5029987;28;20061;-89
2023/03/07 12:55:24;;;;;;;9.18;5.85;;;;;;;;;;5013372;28;20050;-87
2023/03/07 12:57:58;;;;;;;8.20;6.40;;;;;;;;;;5021734;28;20497;-87
2023/03/07 13:00:25;;;;;;;8.13;6.70;;;;;;;;;;5035401;28;20050;-87
2023/03/07 13:02:59;;;;;;;10.32;6.22;;;;;;;;;;5030574;28;20057;-86
2023/03/07 13:05:29;;;;;;;8.57;5.82;;;;;;;;;;4998826;28;20511;-86
2023/03/07 13:07:57;;;;;;;13.98;5.97;;;;;;;;;;4999355;28;20453;-87
2023/03/07 13:10:25;;;;;;;10.18;6.50;;;;;;;;;;5011088;28;20045;-88
2023/03/07 13:12:55;;;;;;;6.55;5.70;;;;;;;;;;5015107;28;20046;-87
2023/03/07 13:15:47;;;;;;;11.48;5.50;;;;;;;;;;5018513;28;20057;-87
2023/03/07 13:18:28;;;;;;;7.80;5.55;;;;;;;;;;5004404;28;20084;-90
2023/03/07 13:21:17;;;;;;;8.38;6.05;;;;;;;;;;5032552;28;20445;-86
2023/03/07 13:23:45;;;;;;;8.73;5.80;;;;;;;;;;5032228;28;20399;-87
2023/03/07 13:26:13;;;;;;;9.05;5.38;;;;;;;;;;5021735;28;20415;-88
2023/03/07 13:28:51;;;;;;;11.32;5.60;;;;;;;;;;5019429;28;20057;-88
2023/03/07 13:31:39;;;;;;;7.50;5.07;;;;;;;;;;5026295;28;20046;-88
2023/03/07 13:34:45;;;;;;;9.38;4.78;;;;;;;;;;4994435;28;20142;-87
2023/03/07 13:37:49;;;;;;;6.10;4.93;;;;;;;;;;5011794;28;20037;-86
2023/03/07 13:40:47;;;;;;;;;;;;;;;;;;5046997;28;20056;-87
2023/03/07 13:44:02;;;;;;;10.13;5.57;;;;;;;;;;5020840;28;19928;-87
2023/03/07 13:46:46;;;;;;;7.32;5.32;;;;;;;;;;5004062;28;20046;-87
2023/03/07 13:49:39;;;;;;;9.02;5.57;;;;;;;;;;5019738;28;20069;-87
2023/03/07 13:52:32;;;;;;;7.57;5.47;;;;;;;;;;5001241;28;20049;-87
2023/03/07 13:55:04;;;;;;;11.20;6.22;;;;;;;;;;5000124;28;20069;-87
2023/03/07 13:57:46;;;;;;;8.65;5.57;;;;;;;;;;5032746;28;20046;-87
2023/03/07 14:00:37;;;;;;;6.80;4.88;;;;;;;;;;5013871;28;20052;-86
2023/03/07 14:03:26;;;;;;;7.20;4.70;;;;;;;;;;5019249;28;20041;-87
2023/03/07 14:05:57;;;;;;;8.30;5.60;;;;;;;;;;5025087;28;20042;-88
2023/03/07 14:08:28;;;;;;;6.97;4.65;;;;;;;;;;5026536;28;20050;-87
2023/03/07 14:10:56;;;;;;;5.85;4.43;;;;;;;;;;5028413;28;20050;-87
2023/03/07 14:13:40;;;;;;;6.78;4.78;;;;;;;;;;5006385;28;20065;-86
2023/03/07 14:16:20;;;;;;;4.78;4.15;;;;;;;;;;4995929;28;20519;-87
2023/03/07 14:19:05;;;;;;;5.95;4.50;;;;;;;;;;5028043;28;20046;-87
2023/03/07 14:21:48;;;;;;;5.97;4.03;;;;;;;;;;5022797;28;20053;-89
2023/03/07 14:24:39;;;;;;;7.18;4.13;;;;;;;;;;5023945;28;20054;-88
2023/03/07 14:27:15;;;;;;;12.77;5.47;;;;;;;;;;5028587;28;20041;-88
2023/03/07 14:29:50;;;;;;;9.32;4.43;;;;;;;;;;5026494;28;20435;-87
2023/03/07 14:32:31;;;;;;;7.90;4.65;;;;;;;;;;5015616;28;20061;-86
2023/03/07 14:35:02;;;;;;;7.50;5.35;;;;;;;;;;5019122;28;20060;-89
2023/03/07 14:37:31;;;;;;;6.93;4.70;;;;;;;;;;5002239;28;20060;-88
2023/03/07 14:40:09;;;;;;;8.52;4.50;;;;;;;;;;5012621;28;20053;-88
2023/03/07 14:42:43;;;;;;;9.07;4.53;;;;;;;;;;5035250;28;20069;-88
2023/03/07 14:45:27;;;;;;;6.60;4.63;;;;;;;;;;5034556;28;20057;-88
2023/03/07 14:48:06;;;;;;;6.45;4.07;;;;;;;;;;5029921;28;20439;-86
2023/03/07 14:50:38;;;;;;;5.82;4.40;;;;;;;;;;5022498;28;20057;-89
2023/03/07 14:53:14;;;;;;;7.65;4.88;;;;;;;;;;5032157;28;20057;-86
2023/03/07 14:55:45;;;;;;;9.82;5.40;;;;;;;;;;5019045;28;20046;-87
2023/03/07 14:58:23;;;;;;;7.63;4.53;;;;;;;;;;5031999;28;20056;-88
2023/03/07 15:01:03;;;;;;;6.22;5.45;;;;;;;;;;5010113;28;20061;-88
2023/03/07 15:03:31;;;;;;;8.30;4.82;;;;;;;;;;4998836;28;20073;-89
2023/03/07 15:06:01;;;;;;;7.13;5.80;;;;;;;;;;5020500;28;20045;-88
2023/03/07 15:08:30;;;;;;;8.80;5.07;;;;;;;;;;5024399;28;20417;-87
2023/03/07 15:11:05;;;;;;;9.50;4.85;;;;;;;;;;5014463;28;20076;-88
2023/03/07 15:13:37;;;;;;;8.43;5.13;;;;;;;;;;5005589;28;20041;-86
2023/03/07 15:16:13;;;;;;;7.30;4.38;;;;;;;;;;5018726;28;20419;-87
2023/03/07 15:18:47;;;;;;;5.53;4.05;;;;;;;;;;5032141;28;20442;-88
2023/03/07 15:21:23;;;;;;;9.38;4.32;;;;;;;;;;5018814;28;20057;-86
2023/03/07 15:23:55;;;;;;;6.57;3.55;;;;;;;;;;5033068;28;20936;-88
2023/03/07 15:26:23;;;;;;;6.20;5.25;;;;;;;;;;5006001;28;20038;-85
2023/03/07 15:28:58;;;;;;;4.32;2.90;;;;;;;;;;5014986;28;20045;-87
2023/03/07 15:31:29;;;;;;;7.55;3.42;;;;;;;;;;5003361;28;20054;-86
2023/03/07 15:34:11;;;;;;;5.47;3.80;;;;;;;;;;5004558;28;20061;-87
2023/03/07 15:36:40;;;;;;;7.57;4.15;;;;;;;;;;5019232;28;20390;-88
2023/03/07 15:39:31;;;;;;;7.47;4.22;;;;;;;;;;5030963;28;20046;-88
2023/03/07 15:42:07;;;;;;;5.80;4.93;;;;;;;;;;5013486;28;20054;-88
2023/03/07 15:44:36;;;;;;;8.07;4.57;;;;;;;;;;5017939;28;20437;-88
2023/03/07 15:47:11;;;;;;;5.32;4.50;;;;;;;;;;5025180;28;20046;-86
2023/03/07 15:49:44;;;;;;;5.30;4.45;;;;;;;;;;5043230;28;20053;-87
2023/03/07 15:52:27;;;;;;;8.25;5.35;;;;;;;;;;5000598;28;20041;-89
2023/03/07 15:54:58;;;;;;;7.53;4.40;;;;;;;;;;5010919;28;20060;-86
2023/03/07 15:57:27;;;;;;;6.13;3.95;;;;;;;;;;5022614;28;20045;-86
2023/03/07 15:59:58;;;;;;;7.85;5.15;;;;;;;;;;5028434;28;20054;-89
2023/03/07 16:02:35;;;;;;;7.03;4.43;;;;;;;;;;5014694;28;20142;-87
2023/03/07 16:05:07;;;;;;;7.60;5.10;;;;;;;;;;5001569;28;20073;-86
2023/03/07 16:07:36;;;;;;;8.80;4.95;;;;;;;;;;5000798;28;20056;-87
2023/03/07 16:10:06;;;;;;;10.65;5.18;;;;;;;;;;4998916;28;20049;-87
2023/03/07 16:12:36;;;;;;;5.80;5.07;;;;;;;;;;4999998;28;20053;-87
2023/03/07 16:15:08;;;;;;;10.23;5.88;;;;;;;;;;5014868;28;20642;-87
2023/03/07 16:17:38;;;;;;;9.57;6.72;;;;;;;;;;5015240;28;20065;-88
2023/03/07 16:20:18;;;;;;;5.80;5.00;;;;;;;;;;5027378;28;20048;-87
2023/03/07 16:22:47;;;;;;;8.55;4.53;;;;;;;;;;5006028;28;20054;-88
2023/03/07 16:25:19;;;;;;;7.40;5.38;;;;;;;;;;5014761;28;20050;-89
2023/03/07 16:27:50;;;;;;;6.28;5.38;;;;;;;;;;5015256;28;20072;-88
2023/03/07 16:30:19;;;;;;;8.57;6.13;;;;;;;;;;5010948;28;20046;-88
2023/03/07 16:32:47;;;;;;;7.35;5.28;;;;;;;;;;5006985;28;20053;-87
2023/03/07 16:35:18;;;;;;;10.02;6.18;;;;;;;;;;5013846;28;20042;-87
2023/03/07 16:37:47;;;;;;;9.60;5.80;;;;;;;;;;5028924;28;20056;-87
2023/03/07 16:40:19;;;;;;;9.40;6.00;;;;;;;;;;5009848;28;20058;-89
2023/03/07 16:42:49;;;;;;;8.50;6.32;;;;;;;;;;5025119;28;20046;-88
2023/03/07 16:45:21;;;;;;;8.02;5.88;;;;;;;;;;5013686;28;20414;-89
2023/03/07 16:47:51;;;;;;;8.15;5.32;;;;;;;;;;5011866;28;20240;-89
2023/03/07 16:50:21;;;;;;;8.98;6.80;;;;;;;;;;5017698;28;20426;-88
2023/03/07 16:52:50;;;;;;;8.05;5.97;;;;;;;;;;5000661;28;20526;-87
2023/03/07 16:55:20;;;;;;;9.65;6.65;;;;;;;;;;5013729;28;20538;-86
2023/03/07 16:57:51;;;;;;;10.68;6.38;;;;;;;;;;5041993;28;20058;-88
2023/03/07 17:00:20;;;;;;;10.10;5.65;;;;;;;;;;5037394;28;20468;-87
2023/03/07 17:02:53;;;;;;;9.82;6.68;;;;;;;;;;5012328;28;20055;-87
2023/03/07 17:05:24;;;;;;;9.98;5.88;;;;;;;;;;5008992;28;20053;-87
2023/03/07 17:07:54;;;;;;;8.77;6.05;;;;;;;;;;5027765;28;20044;-86
2023/03/07 17:10:22;;;;;;;10.85;7.47;;;;;;;;;;5026332;28;20045;-86
2023/03/07 17:12:50;;;;;;;8.82;6.82;;;;;;;;;;5014413;28;20438;-86
2023/03/07 17:15:23;;;;;;;8.82;6.30;;;;;;;;;;5008154;28;20053;-87
2023/03/07 17:17:50;;;;;;;10.40;6.43;;;;;;;;;;5011676;28;20419;-86
2023/03/07 17:20:21;;;;;;;11.02;7.70;;;;;;;;;;5013339;28;20842;-87
2023/03/07 17:22:49;;;;;;;12.55;7.13;;;;;;;;;;5014979;28;20058;-86
2023/03/07 17:25:24;;;;;;;9.85;6.97;;;;;;;;;;5030576;28;20049;-88
2023/03/07 17:27:57;;;;;;;9.10;6.45;;;;;;;;;;5030084;28;20498;-87
2023/03/07 17:30:26;;;;;;;11.52;7.15;;;;;;;;;;5010178;28;20045;-88
2023/03/07 17:32:54;;;;;;;8.55;6.45;;;;;;;;;;5028009;28;20069;-87
2023/03/07 17:35:24;;;;;;;10.18;6.35;;;;;;;;;;5014177;28;20053;-86
2023/03/07 17:37:54;;;;;;;9.07;6.25;;;;;;;;;;5006477;28;20057;-86
2023/03/07 17:40:23;;;;;;;9.70;5.93;;;;;;;;;;5040150;28;20045;-88
2023/03/07 17:42:56;;;;;;;8.60;6.90;;;;;;;;;;5016084;28;20046;-87
2023/03/07 17:45:24;;;;;;;9.25;6.65;;;;;;;;;;5014449;28;20045;-86
2023/03/07 17:47:56;;;;;;;11.57;7.82;;;;;;;;;;5017924;28;20046;-87
2023/03/07 17:50:27;;;;;;;9.57;6.80;;;;;;;;;;5007820;28;20514;-86
2023/03/07 17:52:56;;;;;;;8.15;4.80;;;;;;;;;;5023604;28;20064;-87
2023/03/07 17:55:25;;;;;;;9.77;5.80;;;;;;;;;;5021325;28;20053;-88
2023/03/07 17:57:53;;;;;;;7.18;6.32;;;;;;;;;;5027729;28;20046;-87
2023/03/07 18:00:21;;;;;;;11.90;7.25;;;;;;;;;;5031453;28;20078;-86
2023/03/07 18:02:49;;;;;;;9.82;6.88;;;;;;;;;;5022651;28;20050;-85
2023/03/07 18:05:19;;;;;;;8.57;6.30;;;;;;;;;;5025270;28;20418;-88
2023/03/07 18:07:48;;;;;;;11.98;8.48;;;;;;;;;;5034819;28;20052;-87
2023/03/07 18:10:21;;;;;;;9.15;6.28;;;;;;;;;;5043038;22;20219;-85
2023/03/07 18:12:52;;;;;;;7.82;6.57;;;;;;;;;;5015342;28;20529;-85
2023/03/07 18:15:20;;;;;;;9.10;6.07;;;;;;;;;;5030819;28;20394;-85
2023/03/07 18:17:49;;;;;;;8.10;4.80;;;;;;;;;;5029236;28;20056;-85
2023/03/07 18:20:20;;;;;;;8.48;5.80;;;;;;;;;;5021238;28;20049;-88
2023/03/07 18:22:47;;;;;;;7.25;5.60;;;;;;;;;;5015354;28;20045;-86
2023/03/07 18:25:17;;;;;;;8.55;6.78;;;;;;;;;;5039418;28;20046;-86
2023/03/07 18:27:45;;;;;;;8.43;5.93;;;;;;;;;;5013809;28;20577;-86
2023/03/07 18:30:14;;;;;;;7.55;5.93;;;;;;;;;;4997570;28;20060;-86
2023/03/07 18:32:48;;;;;;;7.25;4.85;;;;;;;;;;5029075;28;20526;-85
2023/03/07 18:35:15;;;;;;;9.02;6.18;;;;;;;;;;5013575;28;20050;-84
2023/03/07 18:37:45;;;;;;;7.45;5.15;;;;;;;;;;5030476;28;20045;-84
2023/03/07 18:40:20;;;;;;;9.00;6.53;;;;;;;;;;5017634;28;20095;-84
2023/03/07 18:42:48;;;;;;;7.28;5.40;;;;;;;;;;5019361;28;20411;-84
2023/03/07 18:45:19;;;;;;;7.80;5.72;;;;;;;;;;5030023;28;20514;-84
2023/03/07 18:47:46;;;;;;;9.73;6.18;;;;;;;;;;5032850;28;20068;-85
2023/03/07 18:50:16;;;;;;;8.38;5.75;;;;;;;;;;5016172;28;20810;-84
2023/03/07 18:52:45;;;;;;;9.18;4.93;;;;;;;;;;5006707;28;20058;-84
2023/03/07 18:55:13;;;;;;;8.25;7.05;;;;;;;;;;5019306;28;20038;-84
2023/03/07 18:57:40;;;;;;;9.13;5.75;;;;;;;;;;5035693;28;20080;-85
2023/03/07 19:00:11;;;;;;;5.93;4.80;;;;;;;;;;5013927;28;20049;-85
2023/03/07 19:02:39;;;;;;;8.25;6.35;;;;;;;;;;5001473;28;20064;-85
2023/03/07 19:05:10;;;;;;;8.88;5.95;;;;;;;;;;4998156;28;20315;-84
2023/03/07 19:07:37;;;;;;;6.28;4.82;;;;;;;;;;5018528;28;20050;-85
2023/03/07 19:10:07;;;;;;;9.05;7.22;;;;;;;;;;5000167;28;20041;-86
2023/03/07 19:12:35;;;;;;;7.72;5.78;;;;;;;;;;5020805;28;20068;-85
2023/03/07 19:15:03;;;;;;;6.25;5.45;;;;;;;;;;5020945;28;20666;-85
2023/03/07 19:17:30;;;;;;;6.05;4.85;;;;;;;;;;5019356;28;20052;-85
2023/03/07 19:20:02;;;;;;;7.68;5.88;;;;;;;;;;5018720;28;20653;-86
2023/03/07 19:22:32;;;;;;;9.10;6.47;;;;;;;;;;5002990;28;20054;-85
2023/03/07 19:24:59;;;;;;;9.50;6.00;;;;;;;;;;5001000;28;20056;-85
2023/03/07 19:27:27;;;;;;;10.45;6.32;;;;;;;;;;5017319;28;20061;-85
2023/03/07 19:29:55;;;;;;;10.50;6.63;;;;;;;;;;4996659;28;20054;-84
2023/03/07 19:32:24;;;;;;;8.82;6.03;;;;;;;;;;5018507;28;20051;-85
2023/03/07 19:34:54;;;;;;;9.45;7.43;;;;;;;;;;5000163;28;20069;-84
2023/03/07 19:37:23;;;;;;;10.30;6.80;;;;;;;;;;4999587;28;20411;-85
2023/03/07 19:39:51;;;;;;;9.00;6.03;;;;;;;;;;5019429;28;20037;-84
2023/03/07 19:42:18;;;;;;;9.60;6.07;;;;;;;;;;5019135;28;20053;-84
2023/03/07 19:44:46;;;;;;;12.00;6.72;;;;;;;;;;4985217;28;20061;-85
2023/03/07 19:47:13;;;;;;;9.30;5.63;;;;;;;;;;5017618;28;20056;-84
2023/03/07 19:49:40;;;;;;;10.30;5.95;;;;;;;;;;4999422;28;20064;-85
2023/03/07 19:52:10;;;;;;;8.57;5.68;;;;;;;;;;5018876;28;20431;-85
2023/03/07 19:54:38;;;;;;;10.43;5.03;;;;;;;;;;4999511;28;20053;-85
2023/03/07 19:57:11;;;;;;;6.20;5.60;;;;;;;;;;5000651;28;20064;-84
2023/03/07 19:59:38;;;;;;;8.25;6.05;;;;;;;;;;5019040;28;20045;-85
2023/03/07 20:02:10;;;;;;;8.75;7.30;;;;;;;;;;4985071;28;20049;-85
2023/03/07 20:04:39;;;;;;;7.35;5.40;;;;;;;;;;5017227;28;20056;-86
2023/03/07 20:07:08;;;;;;;8.05;6.00;;;;;;;;;;5016996;28;20041;-85
2023/03/07 20:09:39;;;;;;;11.65;6.53;;;;;;;;;;5018382;28;20388;-86
2023/03/07 20:12:08;;;;;;;8.00;6.97;;;;;;;;;;5002378;28;20045;-85
2023/03/07 20:14:41;;;;;;;8.27;7.07;;;;;;;;;;5021093;28;20060;-86
2023/03/07 20:17:12;;;;;;;7.47;5.03;;;;;;;;;;5017583;28;20057;-86
2023/03/07 20:19:42;;;;;;;11.00;8.00;;;;;;;;;;5011913;28;20734;-85
2023/03/07 20:22:09;;;;;;;8.32;5.95;;;;;;;;;;5016870;28;20431;-85
2023/03/07 20:24:36;;;;;;;9.45;7.13;;;;;;;;;;4986537;28;20833;-85
2023/03/07 20:27:05;;;;;;;7.70;6.10;;;;;;;;;;5001723;28;20049;-85
2023/03/07 20:29:34;;;;;;;13.20;6.15;;;;;;;;;;5014488;28;20064;-85
2023/03/07 20:32:01;;;;;;;7.15;5.88;;;;;;;;;;4984600;28;20048;-85
2023/03/07 20:34:29;;;;;;;7.95;5.38;;;;;;;;;;5016697;28;20072;-85
2023/03/07 20:36:58;;;;;;;8.88;5.72;;;;;;;;;;5015444;28;20045;-85
2023/03/07 20:39:28;;;;;;;9.15;5.95;;;;;;;;;;5044652;28;20052;-84